createdAt,value
2023-03-14T00:00:11.121Z,21.39
2023-03-14T00:04:10.469Z,21.38
2023-03-14T00:55:50.329Z,20.97
2023-03-14T00:59:51.411Z,21.33
2023-03-14T01:03:51.623Z,21.38
2023-03-14T01:07:51.832Z,21.38
2023-03-14T01:11:52.107Z,21.38
2023-03-14T01:15:52.418Z,21.37
2023-03-14T01:19:52.625Z,21.36
2023-03-14T01:23:52.855Z,21.35
2023-03-14T01:27:52.894Z,21.33
2023-03-14T01:31:52.948Z,21.33
2023-03-14T01:35:52.967Z,21.31
2023-03-14T01:39:52.880Z,21.29
2023-03-14T01:43:52.958Z,21.28
2023-03-14T01:47:52.909Z,21.28
2023-03-14T01:51:53.042Z,21.28
2023-03-14T01:55:53.046Z,21.29
2023-03-14T01:59:53.095Z,21.30
2023-03-14T02:03:53.175Z,21.29
2023-03-14T02:07:53.128Z,21.30
2023-03-14T02:11:53.142Z,21.32
2023-03-14T02:15:53.188Z,21.32
2023-03-14T02:19:53.184Z,21.31
2023-03-14T02:23:53.436Z,21.30
2023-03-14T02:27:53.705Z,21.30
2023-03-14T05:15:59.537Z,21.60
2023-03-14T06:24:02.207Z,21.70
2023-03-14T06:28:02.442Z,21.73
2023-03-14T06:32:02.960Z,21.72
2023-03-14T06:36:02.980Z,21.75
2023-03-14T06:40:02.943Z,21.77
2023-03-14T06:44:02.940Z,21.77
2023-03-14T06:48:02.994Z,21.82
2023-03-14T06:52:02.944Z,21.87
2023-03-14T06:56:02.886Z,21.94
2023-03-14T07:00:03.454Z,22.03
2023-03-14T07:04:03.523Z,22.11
2023-03-14T07:08:03.443Z,22.24
2023-03-14T07:12:03.445Z,22.35
2023-03-14T07:16:03.067Z,22.49
2023-03-14T07:20:03.484Z,22.56
2023-03-14T07:24:02.963Z,22.61
2023-03-14T07:28:02.957Z,22.73
2023-03-14T07:32:02.808Z,22.74
2023-03-14T07:36:03.013Z,22.79
2023-03-14T07:40:02.956Z,22.85
2023-03-14T07:44:03.500Z,22.89
2023-03-14T07:48:03.461Z,22.88
2023-03-14T07:52:03.559Z,22.89
2023-03-14T07:56:03.476Z,22.94
2023-03-14T08:00:03.475Z,22.98
2023-03-14T08:04:03.493Z,22.95
2023-03-14T08:08:03.596Z,22.92
2023-03-14T08:12:03.970Z,22.97
2023-03-14T08:16:03.715Z,23.00
2023-03-14T08:20:03.979Z,23.02
2023-03-14T08:24:04.024Z,23.04
2023-03-14T08:28:03.982Z,23.14
2023-03-14T08:32:05.050Z,23.08
2023-03-14T08:36:04.016Z,22.98
2023-03-14T08:40:04.053Z,22.86
2023-03-14T08:44:03.982Z,22.78
2023-03-14T08:48:04.490Z,22.75
2023-03-14T08:52:04.489Z,22.69
2023-03-14T08:56:04.510Z,22.60
2023-03-14T09:00:04.490Z,22.72
2023-03-14T09:04:04.556Z,22.83
2023-03-14T09:08:04.195Z,22.92
2023-03-14T09:12:04.518Z,22.97
2023-03-14T09:16:04.490Z,23.01
2023-03-14T09:20:03.926Z,23.03
2023-03-14T09:24:03.995Z,23.02
2023-03-14T09:28:04.064Z,23.05
2023-03-14T09:32:04.134Z,23.09
2023-03-14T09:36:04.006Z,23.10
2023-03-14T09:40:06.227Z,23.03
2023-03-14T09:44:04.092Z,22.93
2023-03-14T09:52:04.485Z,22.80
2023-03-14T10:28:03.595Z,22.65
2023-03-14T11:20:02.720Z,22.95
2023-03-14T11:24:03.083Z,22.96
2023-03-14T11:32:03.079Z,22.83
2023-03-14T11:36:03.134Z,22.85
2023-03-14T11:40:03.782Z,23.00
2023-03-14T11:44:04.064Z,23.14
2023-03-14T11:48:03.050Z,23.18
2023-03-14T11:52:03.099Z,23.15
2023-03-14T11:56:02.856Z,23.24
2023-03-14T12:00:02.584Z,23.31
2023-03-14T12:08:02.566Z,23.45
